createdAt,value
2019-03-29T00:00:32.123Z,40.90
2019-03-29T00:03:00.999Z,40.90
2019-03-29T00:05:29.426Z,40.90
2019-03-29T00:07:57.865Z,40.90
2019-03-29T00:10:26.538Z,41.00
2019-03-29T00:12:54.991Z,41.60
2019-03-29T00:15:23.368Z,41.00
2019-03-29T00:17:51.881Z,41.10
2019-03-29T00:20:20.430Z,41.10
2019-03-29T00:22:48.871Z,41.10
2019-03-29T00:25:17.364Z,41.10
2019-03-29T00:27:45.807Z,41.10
2019-03-29T00:30:14.092Z,41.20
2019-03-29T00:32:42.575Z,41.20
2019-03-29T00:35:10.958Z,41.20
2019-03-29T00:37:52.547Z,41.30
2019-03-29T00:40:09.585Z,41.30
2019-03-29T00:42:37.941Z,41.90
2019-03-29T00:45:07.271Z,41.40
2019-03-29T00:47:35.725Z,41.50
2019-03-29T00:50:06.339Z,41.70
2019-03-29T00:52:35.386Z,41.90
2019-03-29T00:55:04.077Z,41.90
2019-03-29T00:57:32.544Z,42.00
2019-03-29T01:00:00.997Z,42.00
2019-03-29T01:02:29.452Z,42.00
2019-03-29T01:04:57.908Z,42.00
2019-03-29T01:07:26.372Z,42.00
2019-03-29T01:09:54.845Z,41.90
2019-03-29T01:12:23.274Z,42.00
2019-03-29T01:14:51.688Z,42.00
2019-03-29T01:17:20.312Z,42.10
2019-03-29T01:19:48.748Z,42.10
2019-03-29T01:22:17.046Z,42.10
2019-03-29T01:24:45.547Z,42.10
2019-03-29T01:27:13.903Z,42.10
2019-03-29T01:29:42.465Z,42.30
2019-03-29T01:32:10.913Z,42.20
2019-03-29T01:34:39.334Z,42.40
2019-03-29T01:37:07.918Z,42.40
2019-03-29T01:39:36.324Z,42.40
2019-03-29T01:42:04.815Z,42.40
2019-03-29T01:44:34.444Z,42.50
2019-03-29T01:47:03.900Z,42.60
2019-03-29T01:49:32.397Z,42.60
2019-03-29T01:52:06.345Z,42.80
2019-03-29T01:54:34.812Z,42.80
2019-03-29T01:57:03.300Z,42.90
2019-03-29T01:59:31.800Z,43.10
2019-03-29T02:02:00.141Z,43.20
2019-03-29T02:04:28.505Z,43.20
2019-03-29T02:06:56.952Z,43.20
2019-03-29T02:09:25.266Z,43.60
2019-03-29T02:11:53.649Z,43.20
2019-03-29T02:14:22.141Z,43.20
2019-03-29T02:16:50.573Z,43.30
2019-03-29T02:19:19.096Z,43.40
2019-03-29T02:21:47.456Z,43.40
2019-03-29T02:24:15.868Z,43.60
2019-03-29T02:26:44.327Z,43.50
2019-03-29T02:29:12.750Z,43.60
2019-03-29T02:31:42.314Z,43.70
2019-03-29T02:34:11.348Z,43.70
2019-03-29T02:36:39.706Z,43.70
2019-03-29T02:39:08.099Z,43.80
2019-03-29T02:41:36.641Z,43.80
2019-03-29T02:44:05.100Z,43.90
2019-03-29T02:46:33.508Z,43.90
2019-03-29T02:49:02.161Z,44.00
2019-03-29T02:51:31.623Z,44.10
2019-03-29T02:54:00.769Z,44.10
2019-03-29T02:56:29.305Z,44.20
2019-03-29T02:58:57.719Z,44.20
2019-03-29T03:01:26.188Z,44.30
2019-03-29T03:03:54.599Z,44.30
2019-03-29T03:06:23.021Z,44.40
2019-03-29T03:08:51.356Z,44.40
2019-03-29T03:11:19.794Z,44.40
2019-03-29T03:13:48.353Z,44.30
2019-03-29T03:16:16.841Z,44.40
2019-03-29T03:18:45.211Z,44.60
2019-03-29T03:21:13.723Z,44.80
2019-03-29T03:24:01.564Z,44.90
2019-03-29T03:26:30.049Z,44.90
2019-03-29T03:28:58.471Z,45.20
2019-03-29T03:31:26.901Z,45.30
2019-03-29T03:33:55.536Z,45.40
2019-03-29T03:36:24.004Z,45.50
2019-03-29T03:38:52.577Z,45.50
2019-03-29T03:41:20.988Z,45.70
2019-03-29T03:43:49.397Z,45.70
2019-03-29T03:46:17.929Z,45.80
2019-03-29T03:48:46.451Z,45.70
2019-03-29T03:51:14.880Z,45.80
2019-03-29T03:53:43.300Z,45.70
2019-03-29T03:56:11.927Z,45.90
2019-03-29T03:58:40.913Z,46.00
2019-03-29T04:01:09.353Z,46.50
2019-03-29T04:03:37.751Z,46.30
2019-03-29T04:06:06.269Z,46.40
2019-03-29T04:08:34.788Z,46.50
2019-03-29T04:11:03.294Z,46.60
2019-03-29T04:13:31.671Z,46.70
2019-03-29T04:16:00.195Z,46.90
2019-03-29T04:18:28.607Z,46.90
2019-03-29T04:20:57.073Z,47.00
2019-03-29T04:23:25.603Z,47.00
2019-03-29T04:25:54.057Z,47.00
2019-03-29T04:28:22.554Z,47.00
2019-03-29T04:30:50.978Z,47.10
2019-03-29T04:33:19.442Z,47.20
2019-03-29T04:35:47.790Z,47.30
2019-03-29T04:38:16.373Z,47.40
2019-03-29T04:40:44.792Z,47.40
2019-03-29T04:43:13.181Z,47.50
2019-03-29T04:45:41.663Z,47.70
2019-03-29T04:48:10.040Z,47.90
2019-03-29T04:50:38.426Z,48.10
2019-03-29T04:53:06.860Z,48.30
2019-03-29T04:55:35.318Z,48.40
2019-03-29T04:58:03.690Z,48.70
2019-03-29T05:00:32.132Z,48.80
2019-03-29T05:03:00.484Z,48.90
2019-03-29T05:05:28.936Z,49.00
2019-03-29T05:07:57.549Z,49.00
2019-03-29T05:10:25.941Z,49.00
2019-03-29T05:12:54.316Z,49.00
2019-03-29T05:15:22.758Z,49.00
2019-03-29T05:17:51.168Z,49.20
2019-03-29T05:20:19.534Z,49.10
2019-03-29T05:22:47.888Z,49.50
2019-03-29T05:25:16.346Z,48.90
2019-03-29T05:27:44.822Z,48.90
2019-03-29T05:30:13.326Z,49.00
2019-03-29T05:32:41.760Z,49.00
2019-03-29T05:35:10.230Z,48.90
2019-03-29T05:37:38.770Z,48.80
2019-03-29T05:40:07.222Z,48.20
2019-03-29T05:42:35.588Z,47.80
2019-03-29T05:45:06.712Z,48.00
2019-03-29T05:47:35.155Z,48.50
2019-03-29T05:50:05.490Z,49.00
2019-03-29T05:52:34.018Z,49.60
2019-03-29T05:55:02.631Z,50.00
2019-03-29T05:57:31.054Z,50.20
2019-03-29T05:59:59.485Z,50.30
2019-03-29T06:02:27.836Z,50.30
2019-03-29T06:04:56.241Z,50.40
2019-03-29T06:07:24.778Z,50.40
2019-03-29T06:09:53.175Z,50.20
2019-03-29T06:12:21.576Z,50.30
2019-03-29T06:14:50.030Z,50.10
2019-03-29T06:17:18.477Z,49.80
2019-03-29T06:19:46.834Z,49.80
2019-03-29T06:22:15.184Z,50.00
2019-03-29T06:24:43.605Z,50.20
2019-03-29T06:27:11.964Z,50.20
2019-03-29T06:29:40.461Z,50.40
2019-03-29T06:32:08.817Z,50.50
2019-03-29T06:34:37.189Z,50.30
2019-03-29T06:37:06.089Z,50.40
2019-03-29T06:39:34.602Z,50.50
2019-03-29T06:42:02.989Z,50.80
2019-03-29T06:44:31.512Z,50.80
2019-03-29T06:46:59.905Z,50.90
2019-03-29T06:49:28.332Z,51.00
2019-03-29T06:51:56.761Z,51.20
2019-03-29T06:54:25.048Z,51.20
2019-03-29T06:56:53.422Z,51.30
2019-03-29T06:59:22.086Z,51.10
2019-03-29T07:01:50.485Z,51.10
2019-03-29T07:04:18.965Z,50.80
2019-03-29T07:06:47.428Z,50.90
2019-03-29T07:09:15.909Z,50.80
2019-03-29T07:11:44.261Z,50.80
2019-03-29T07:14:12.838Z,50.60
2019-03-29T07:16:41.208Z,50.70
2019-03-29T07:19:09.669Z,50.50
2019-03-29T07:21:38.296Z,50.50
2019-03-29T07:24:06.692Z,50.40
2019-03-29T07:26:35.114Z,50.60
2019-03-29T07:29:03.642Z,50.70
2019-03-29T07:31:32.132Z,50.70
2019-03-29T07:34:00.541Z,50.50
2019-03-29T07:36:29.153Z,50.70
2019-03-29T07:38:57.581Z,50.90
2019-03-29T07:41:32.282Z,51.00
2019-03-29T07:43:56.114Z,50.70
2019-03-29T07:46:24.584Z,50.40
2019-03-29T07:48:53.136Z,50.00
2019-03-29T07:51:21.666Z,49.70
2019-03-29T07:53:50.032Z,49.60
2019-03-29T07:56:18.461Z,49.20
2019-03-29T07:58:46.964Z,48.70
2019-03-29T08:01:15.262Z,48.50
2019-03-29T08:03:43.742Z,48.30
2019-03-29T08:06:12.378Z,48.10
2019-03-29T08:08:40.733Z,48.00
2019-03-29T08:11:09.173Z,47.50
2019-03-29T08:13:38.713Z,47.60
2019-03-29T08:16:07.114Z,47.40
2019-03-29T08:18:35.593Z,46.80
2019-03-29T08:21:04.887Z,46.60
2019-03-29T08:23:33.319Z,46.50
2019-03-29T08:26:01.679Z,46.40
2019-03-29T08:28:30.140Z,46.10
2019-03-29T08:30:58.593Z,45.40
2019-03-29T08:33:27.101Z,44.80
2019-03-29T08:35:55.537Z,44.60
2019-03-29T08:38:24.108Z,44.50
2019-03-29T08:40:52.528Z,44.50
2019-03-29T08:43:21.152Z,44.60
2019-03-29T08:45:49.854Z,44.10
2019-03-29T08:48:18.320Z,43.80
2019-03-29T08:50:46.865Z,43.50
2019-03-29T08:53:15.329Z,43.60
2019-03-29T08:55:45.991Z,43.70
2019-03-29T08:58:13.957Z,43.50
2019-03-29T09:00:42.316Z,43.10
2019-03-29T09:03:10.628Z,42.60
2019-03-29T09:05:39.411Z,42.20
2019-03-29T09:08:08.039Z,42.30
2019-03-29T09:10:36.504Z,42.30
2019-03-29T09:13:05.069Z,42.30
2019-03-29T09:15:33.500Z,42.10
2019-03-29T09:18:02.009Z,41.50
2019-03-29T09:20:34.087Z,41.10
2019-03-29T09:23:00.657Z,41.00
2019-03-29T09:25:29.125Z,40.70
2019-03-29T09:27:57.582Z,40.40
2019-03-29T09:30:26.020Z,40.40
2019-03-29T09:32:54.389Z,40.30
2019-03-29T09:35:22.821Z,40.30
2019-03-29T09:37:51.352Z,40.10
2019-03-29T09:40:19.776Z,39.80
2019-03-29T09:42:55.834Z,39.70
2019-03-29T09:45:19.377Z,39.30
2019-03-29T09:47:47.868Z,39.60
2019-03-29T09:50:16.357Z,38.80
2019-03-29T09:52:44.724Z,38.90
2019-03-29T09:55:13.141Z,38.80
2019-03-29T09:57:41.621Z,38.70
2019-03-29T10:00:19.093Z,38.40
2019-03-29T10:02:40.413Z,38.50
2019-03-29T10:05:08.885Z,38.20
2019-03-29T10:07:37.305Z,38.10
2019-03-29T10:10:06.059Z,38.10
2019-03-29T10:12:43.172Z,37.90
2019-03-29T10:15:06.341Z,37.80
2019-03-29T10:17:34.791Z,37.70
2019-03-29T10:20:03.673Z,37.70
2019-03-29T10:22:32.180Z,37.90
2019-03-29T10:25:02.518Z,37.70
2019-03-29T10:27:30.794Z,37.60
2019-03-29T10:29:59.232Z,37.50
2019-03-29T10:32:27.696Z,37.40
2019-03-29T10:34:56.160Z,37.30
2019-03-29T10:37:24.623Z,37.30
2019-03-29T10:39:53.166Z,37.40
2019-03-29T10:42:21.712Z,37.50
2019-03-29T10:44:50.326Z,37.90
2019-03-29T10:47:18.810Z,36.80
2019-03-29T10:49:47.236Z,36.80
2019-03-29T10:52:15.669Z,36.70
2019-03-29T10:54:44.987Z,36.60
2019-03-29T10:57:13.606Z,36.60
2019-03-29T10:59:41.985Z,36.50
2019-03-29T11:02:10.677Z,36.60
2019-03-29T11:04:39.172Z,36.60
2019-03-29T11:07:07.641Z,36.50
2019-03-29T11:09:37.208Z,35.90
2019-03-29T11:12:05.728Z,36.10
2019-03-29T11:14:34.093Z,36.20
2019-03-29T11:17:02.578Z,36.30
2019-03-29T11:19:31.131Z,36.30
2019-03-29T11:21:59.586Z,36.20
2019-03-29T11:24:28.065Z,35.80
2019-03-29T11:26:56.476Z,35.80
2019-03-29T11:29:24.945Z,35.50
2019-03-29T11:31:53.253Z,35.00
2019-03-29T11:34:21.677Z,35.00
2019-03-29T11:36:52.557Z,34.80
2019-03-29T11:39:20.138Z,35.00
2019-03-29T11:41:48.691Z,34.80
2019-03-29T11:44:17.470Z,34.80
2019-03-29T11:46:45.982Z,35.10
2019-03-29T11:49:14.378Z,35.00
2019-03-29T11:51:42.870Z,34.80
2019-03-29T11:54:11.224Z,34.30
2019-03-29T11:56:39.721Z,34.10
2019-03-29T11:59:08.132Z,33.30
2019-03-29T12:01:36.566Z,32.30
2019-03-29T12:04:05.085Z,32.60
2019-03-29T12:06:33.540Z,32.70
2019-03-29T12:09:01.998Z,32.80
2019-03-29T12:11:30.435Z,32.70
2019-03-29T12:13:58.917Z,32.80
2019-03-29T12:16:27.354Z,33.80
2019-03-29T12:18:55.906Z,33.00
2019-03-29T12:21:24.337Z,32.70
2019-03-29T12:23:52.625Z,32.30
2019-03-29T12:26:21.114Z,32.50
2019-03-29T12:28:49.545Z,32.70
2019-03-29T12:31:18.017Z,32.70
2019-03-29T12:33:46.595Z,32.10
2019-03-29T12:36:15.099Z,32.00
2019-03-29T12:38:43.441Z,31.70
2019-03-29T12:41:11.844Z,31.40
2019-03-29T12:43:40.292Z,30.90
2019-03-29T12:46:08.969Z,30.50
2019-03-29T12:48:37.402Z,29.60
2019-03-29T12:51:05.867Z,28.90
2019-03-29T12:53:34.326Z,28.60
2019-03-29T12:56:02.848Z,28.30
2019-03-29T12:58:31.109Z,27.70
2019-03-29T13:00:59.752Z,27.40
2019-03-29T13:03:28.302Z,27.20
2019-03-29T13:05:56.649Z,26.70
2019-03-29T13:08:25.252Z,26.30
2019-03-29T13:10:53.649Z,26.00
2019-03-29T13:13:22.033Z,25.40
2019-03-29T13:15:50.532Z,25.10
2019-03-29T13:18:18.973Z,25.00
2019-03-29T13:20:47.332Z,24.50
2019-03-29T13:23:15.829Z,24.30
2019-03-29T13:25:44.319Z,24.00
2019-03-29T13:28:12.699Z,23.80
2019-03-29T13:30:41.206Z,23.50
2019-03-29T13:33:09.612Z,23.70
2019-03-29T13:35:38.056Z,23.80
2019-03-29T13:38:06.622Z,23.60
2019-03-29T13:40:35.071Z,23.80
2019-03-29T13:43:03.504Z,23.40
2019-03-29T13:45:31.916Z,23.50
2019-03-29T13:48:00.441Z,23.30
2019-03-29T13:50:28.939Z,23.00
2019-03-29T13:52:57.329Z,22.60
2019-03-29T13:55:25.758Z,22.20
2019-03-29T13:57:54.281Z,22.00
2019-03-29T14:00:22.729Z,21.90
2019-03-29T14:02:51.196Z,21.80
2019-03-29T14:05:19.731Z,21.70
2019-03-29T14:07:48.236Z,21.50
2019-03-29T14:10:16.711Z,21.50
2019-03-29T14:12:45.161Z,21.60
2019-03-29T14:15:13.622Z,21.90
2019-03-29T14:17:42.010Z,22.50
2019-03-29T14:20:11.700Z,22.60
2019-03-29T14:22:40.070Z,22.20
2019-03-29T14:25:08.616Z,21.90
2019-03-29T14:27:37.196Z,21.80
2019-03-29T14:30:06.518Z,21.80
2019-03-29T14:32:34.884Z,22.30
2019-03-29T14:35:05.031Z,22.30
2019-03-29T14:37:33.454Z,22.60
2019-03-29T14:40:01.919Z,22.30
2019-03-29T14:42:30.469Z,21.90
2019-03-29T14:44:58.821Z,21.60
2019-03-29T14:47:39.679Z,21.70
2019-03-29T14:49:57.604Z,21.90
2019-03-29T14:52:25.965Z,22.20
2019-03-29T14:54:54.473Z,22.10
2019-03-29T14:57:22.869Z,21.90
2019-03-29T14:59:51.406Z,21.90
2019-03-29T15:02:22.169Z,22.00
2019-03-29T15:04:49.958Z,21.70
2019-03-29T15:07:18.468Z,21.40
2019-03-29T15:09:47.010Z,21.10
2019-03-29T15:12:15.434Z,21.00
2019-03-29T15:14:43.934Z,21.00
2019-03-29T15:17:12.378Z,21.30
2019-03-29T15:19:40.835Z,21.50
2019-03-29T15:22:09.250Z,21.50
2019-03-29T15:24:37.731Z,21.40
2019-03-29T15:27:06.179Z,21.40
2019-03-29T15:29:34.593Z,21.20
2019-03-29T15:32:03.159Z,21.10
2019-03-29T15:34:31.620Z,21.30
2019-03-29T15:37:00.091Z,21.60
2019-03-29T15:39:28.412Z,21.60
2019-03-29T15:41:56.928Z,21.30
2019-03-29T15:44:25.413Z,21.10
2019-03-29T15:46:53.856Z,21.10
2019-03-29T15:49:55.090Z,21.00
2019-03-29T15:52:11.863Z,20.80
2019-03-29T15:54:40.239Z,20.90
2019-03-29T15:57:08.819Z,21.10
2019-03-29T15:59:37.283Z,21.20
2019-03-29T16:02:05.725Z,21.20
2019-03-29T16:04:34.153Z,21.20
2019-03-29T16:07:02.654Z,20.90
2019-03-29T16:09:31.197Z,20.70
2019-03-29T16:11:59.706Z,20.80
2019-03-29T16:14:28.236Z,20.80
2019-03-29T16:16:57.953Z,21.30
2019-03-29T16:19:26.429Z,20.90
2019-03-29T16:21:54.952Z,21.20
2019-03-29T16:24:23.471Z,21.40
2019-03-29T16:26:51.891Z,21.40
2019-03-29T16:29:20.336Z,21.50
2019-03-29T16:31:48.872Z,21.80
2019-03-29T16:34:17.389Z,21.40
2019-03-29T16:36:46.997Z,21.40
2019-03-29T16:39:15.490Z,21.40
2019-03-29T16:41:43.934Z,21.40
2019-03-29T16:44:12.486Z,21.40
2019-03-29T16:46:40.909Z,21.50
2019-03-29T16:49:09.321Z,22.20
2019-03-29T16:51:37.931Z,21.90
2019-03-29T16:54:06.571Z,22.10
2019-03-29T16:56:35.057Z,22.20
2019-03-29T16:59:03.623Z,22.30
2019-03-29T17:01:32.102Z,22.40
2019-03-29T17:04:00.549Z,22.60
2019-03-29T17:06:29.096Z,22.90
2019-03-29T17:08:57.588Z,23.10
2019-03-29T17:11:26.040Z,23.40
2019-03-29T17:13:54.523Z,23.70
2019-03-29T17:16:30.230Z,23.90
2019-03-29T17:18:53.030Z,24.10
2019-03-29T17:21:21.553Z,24.40
2019-03-29T17:23:52.515Z,24.70
2019-03-29T17:26:21.073Z,25.10
2019-03-29T17:28:49.569Z,25.40
2019-03-29T17:31:18.459Z,25.90
2019-03-29T17:33:46.854Z,26.30
2019-03-29T17:36:15.402Z,26.70
2019-03-29T17:38:43.863Z,26.90
2019-03-29T17:41:12.389Z,27.20
2019-03-29T17:43:40.851Z,27.50
2019-03-29T17:46:16.016Z,27.80
2019-03-29T17:48:39.481Z,27.90
2019-03-29T17:51:07.895Z,28.10
2019-03-29T17:53:36.490Z,28.20
2019-03-29T17:56:04.926Z,28.50
2019-03-29T17:58:33.323Z,28.70
2019-03-29T18:01:01.796Z,28.90
2019-03-29T18:03:30.150Z,29.10
2019-03-29T18:05:58.637Z,29.20
2019-03-29T18:08:27.178Z,29.40
2019-03-29T18:10:55.680Z,29.50
2019-03-29T18:13:24.124Z,29.70
2019-03-29T18:15:52.477Z,30.00
2019-03-29T18:18:20.910Z,30.00
2019-03-29T18:20:49.302Z,30.10
2019-03-29T18:23:17.798Z,30.30
2019-03-29T18:25:46.295Z,30.50
2019-03-29T18:28:14.754Z,30.60
2019-03-29T18:30:43.262Z,30.80
2019-03-29T18:33:11.688Z,30.80
2019-03-29T18:35:40.133Z,30.90
2019-03-29T18:38:08.689Z,31.10
2019-03-29T18:40:37.281Z,31.20
2019-03-29T18:43:05.804Z,31.30
2019-03-29T18:45:34.256Z,31.50
2019-03-29T18:48:02.718Z,31.70
2019-03-29T18:50:31.220Z,31.80
2019-03-29T18:52:59.701Z,32.00
2019-03-29T18:55:28.176Z,32.10
2019-03-29T18:57:56.703Z,32.20
2019-03-29T19:00:30.012Z,32.40
2019-03-29T19:02:58.516Z,32.50
2019-03-29T19:05:27.362Z,32.60
2019-03-29T19:07:55.819Z,32.70
2019-03-29T19:10:24.348Z,32.90
2019-03-29T19:12:52.767Z,33.00
2019-03-29T19:15:21.166Z,33.20
2019-03-29T19:17:50.570Z,33.20
2019-03-29T19:20:27.202Z,33.40
2019-03-29T19:22:49.155Z,33.60
2019-03-29T19:25:17.701Z,33.60
2019-03-29T19:27:46.210Z,33.70
2019-03-29T19:30:14.644Z,33.80
2019-03-29T19:32:43.136Z,33.90
2019-03-29T19:35:11.545Z,34.00
2019-03-29T19:37:40.019Z,34.20
2019-03-29T19:40:08.497Z,34.30
2019-03-29T19:42:37.093Z,34.30
2019-03-29T19:45:07.227Z,34.30
2019-03-29T19:47:35.697Z,34.40
2019-03-29T19:50:04.963Z,34.50
2019-03-29T19:52:33.416Z,34.60
2019-03-29T19:55:02.186Z,34.70
2019-03-29T19:57:30.708Z,34.80
2019-03-29T19:59:59.190Z,34.90
2019-03-29T20:02:27.686Z,35.00
2019-03-29T20:04:56.316Z,35.10
2019-03-29T20:07:24.808Z,35.10
2019-03-29T20:09:53.357Z,35.20
2019-03-29T20:12:24.969Z,35.30
2019-03-29T20:14:52.090Z,36.00
2019-03-29T20:17:27.500Z,35.50
2019-03-29T20:19:50.892Z,35.70
2019-03-29T20:22:19.515Z,35.80
2019-03-29T20:24:47.968Z,36.00
2019-03-29T20:27:16.427Z,36.10
2019-03-29T20:29:44.918Z,36.30
2019-03-29T20:32:13.421Z,36.40
2019-03-29T20:34:41.858Z,36.60
2019-03-29T20:37:10.266Z,36.80
2019-03-29T20:39:38.836Z,36.80
2019-03-29T20:42:07.431Z,37.00
2019-03-29T20:44:35.814Z,37.20
2019-03-29T20:47:04.362Z,37.30
2019-03-29T20:49:32.867Z,37.40
2019-03-29T20:52:01.304Z,37.60
2019-03-29T20:54:30.033Z,37.70
2019-03-29T20:56:58.404Z,37.90
2019-03-29T20:59:26.831Z,38.00
2019-03-29T21:01:55.299Z,38.00
2019-03-29T21:04:23.748Z,38.10
2019-03-29T21:06:52.177Z,38.20
2019-03-29T21:09:20.818Z,38.40
2019-03-29T21:11:49.439Z,38.50
2019-03-29T21:14:18.011Z,38.50
2019-03-29T21:16:46.677Z,38.50
2019-03-29T21:19:15.430Z,38.60
2019-03-29T21:21:43.893Z,38.80
2019-03-29T21:24:12.482Z,38.90
2019-03-29T21:26:40.996Z,38.90
2019-03-29T21:29:09.653Z,39.10
2019-03-29T21:31:40.103Z,39.30
2019-03-29T21:34:08.457Z,39.60
2019-03-29T21:36:36.802Z,39.70
2019-03-29T21:39:08.137Z,40.00
2019-03-29T21:41:40.126Z,40.10
2019-03-29T21:44:08.312Z,40.20
2019-03-29T21:46:39.118Z,39.90
2019-03-29T21:49:08.951Z,40.60
2019-03-29T21:51:37.327Z,40.70
2019-03-29T21:54:05.956Z,40.90
2019-03-29T21:56:35.121Z,41.10
2019-03-29T21:59:05.191Z,41.20
2019-03-29T22:01:33.796Z,41.40
2019-03-29T22:04:02.359Z,41.40
2019-03-29T22:06:30.797Z,41.50
2019-03-29T22:08:59.333Z,41.50
2019-03-29T22:11:27.847Z,41.50
2019-03-29T22:13:56.189Z,41.50
2019-03-29T22:16:24.655Z,41.60
2019-03-29T22:18:53.200Z,41.70
2019-03-29T22:21:21.681Z,41.70
2019-03-29T22:23:50.183Z,41.80
2019-03-29T22:26:18.651Z,41.70
2019-03-29T22:28:47.199Z,41.70
2019-03-29T22:31:15.779Z,41.70
2019-03-29T22:33:44.288Z,41.70
2019-03-29T22:36:12.758Z,41.70
2019-03-29T22:38:41.252Z,41.80
2019-03-29T22:41:09.653Z,42.00
2019-03-29T22:43:38.131Z,42.10
2019-03-29T22:46:06.546Z,42.10
2019-03-29T22:48:34.916Z,42.20
2019-03-29T22:51:03.417Z,42.20
2019-03-29T22:53:31.809Z,42.20
2019-03-29T22:56:00.247Z,42.30
2019-03-29T22:58:28.789Z,42.30
2019-03-29T23:00:57.258Z,42.50
2019-03-29T23:03:25.666Z,42.50
2019-03-29T23:05:54.168Z,42.60
2019-03-29T23:08:22.593Z,42.60
2019-03-29T23:10:50.996Z,42.70
2019-03-29T23:13:19.286Z,42.80
2019-03-29T23:15:47.725Z,43.00
2019-03-29T23:18:16.247Z,43.20
2019-03-29T23:20:44.621Z,43.50
2019-03-29T23:23:13.015Z,43.70
2019-03-29T23:25:41.551Z,43.80
2019-03-29T23:28:09.953Z,43.90
2019-03-29T23:30:38.798Z,43.90
2019-03-29T23:33:07.288Z,43.90
2019-03-29T23:35:35.653Z,43.80
2019-03-29T23:38:04.144Z,43.90
2019-03-29T23:40:32.538Z,43.90
2019-03-29T23:43:00.937Z,43.90
2019-03-29T23:45:29.420Z,44.00
2019-03-29T23:47:57.886Z,44.10
2019-03-29T23:50:26.308Z,44.20
2019-03-29T23:52:54.770Z,44.40
2019-03-29T23:55:23.202Z,44.50
2019-03-29T23:57:51.567Z,44.60
